River Falls, Wisconsin
Current Conditions -  °F | °C
As of 5:50 PM on Saturday 22 Nov 2014 (Local Time) from K21D Reporting Station
Haze Haze  
Wind Chill: -2°   Ceiling: 400
Heat Index:   Visibility: 4mi
Dew Point:   Wind: 9mph
Humidity: 93%   Direction: 160°SSE
Pressure: 29.64"   Gusts: NA
Location:  44.85°N, 92.63°W
Report Text: K21D 222350Z AUTO 16008KT 4SM BR OVC004 02/01 A2964 RMK AO2
Loading
Personal Weather Stations






























Interactive Weather Map New forecast layout! Learn more

10-Day Weather Forecast

Advertisements
Track Severe Weather on mobile